Shelby, Indiana
Current Conditions -  °F | °C
As of 8:15 AM on Thursday 27 Nov 2014 (Local Time) from KRZL Reporting Station
Haze Haze  
Wind Chill: 16°   Ceiling: 6000
Heat Index: 27°   Visibility: 5mi
Dew Point: 25°   Wind: 12mph
Humidity: 93%   Direction: 280°W
Pressure: 30.3"   Gusts: 17mph
Location:  41.2°N, 87.35°W
Report Text: KRZL 271415Z AUTO 28010G15KT 5SM BR SCT036 OVC060 M03/M04 A3030 RMK AO2
Loading
Personal Weather Stations






























Interactive Weather Map New forecast layout! Learn more

10-Day Weather Forecast

Advertisements
Track Severe Weather on mobile